sensor_id;sensor_type;location;lat;lon;timestamp;temperature;humidity
10441;DHT22;5268;49.346;9.522;2023-07-08T03:10:17;17.70;79.40
10441;DHT22;5268;49.346;9.522;2023-07-08T03:15:19;17.60;78.90
10441;DHT22;5268;49.346;9.522;2023-07-08T03:20:23;17.60;78.50
10441;DHT22;5268;49.346;9.522;2023-07-08T03:25:27;17.50;79.80
10441;DHT22;5268;49.346;9.522;2023-07-08T03:30:29;17.50;81.00
10441;DHT22;5268;49.346;9.522;2023-07-08T03:35:31;17.40;85.00
10441;DHT22;5268;49.346;9.522;2023-07-08T03:40:38;17.30;81.50
10441;DHT22;5268;49.346;9.522;2023-07-08T03:45:46;17.30;82.70
10441;DHT22;5268;49.346;9.522;2023-07-08T03:50:50;17.30;79.40
10441;DHT22;5268;49.346;9.522;2023-07-08T04:01:26;17.40;78.50
10441;DHT22;5268;49.346;9.522;2023-07-08T04:12:33;17.40;81.70
10441;DHT22;5268;49.346;9.522;2023-07-08T04:17:41;17.40;82.30
10441;DHT22;5268;49.346;9.522;2023-07-08T04:22:54;17.30;81.50
10441;DHT22;5268;49.346;9.522;2023-07-08T04:28:06;17.30;82.10
10441;DHT22;5268;49.346;9.522;2023-07-08T04:33:22;17.30;85.60
10441;DHT22;5268;49.346;9.522;2023-07-08T04:38:27;17.30;83.50
10441;DHT22;5268;49.346;9.522;2023-07-08T04:43:31;17.20;91.40
10441;DHT22;5268;49.346;9.522;2023-07-08T04:48:33;17.20;84.30
10441;DHT22;5268;49.346;9.522;2023-07-08T04:53:35;17.30;83.20
10441;DHT22;5268;49.346;9.522;2023-07-08T04:58:38;17.30;83.70
10441;DHT22;5268;49.346;9.522;2023-07-08T05:03:40;17.40;83.00
10441;DHT22;5268;49.346;9.522;2023-07-08T05:08:42;17.50;84.60
10441;DHT22;5268;49.346;9.522;2023-07-08T05:13:45;17.60;87.90
10441;DHT22;5268;49.346;9.522;2023-07-08T05:18:53;17.60;86.60
10441;DHT22;5268;49.346;9.522;2023-07-08T05:23:56;17.80;83.10
10441;DHT22;5268;49.346;9.522;2023-07-08T05:28:59;17.90;93.00
10441;DHT22;5268;49.346;9.522;2023-07-08T05:34:01;18.60;88.30
10441;DHT22;5268;49.346;9.522;2023-07-08T05:39:03;19.30;89.20
10441;DHT22;5268;49.346;9.522;2023-07-08T05:44:07;19.60;90.00
10441;DHT22;5268;49.346;9.522;2023-07-08T05:49:10;19.90;90.50
10441;DHT22;5268;49.346;9.522;2023-07-08T05:54:12;20.10;86.30
10441;DHT22;5268;49.346;9.522;2023-07-08T05:59:15;20.10;89.30
10441;DHT22;5268;49.346;9.522;2023-07-08T06:04:17;20.30;87.90
10441;DHT22;5268;49.346;9.522;2023-07-08T06:09:21;20.40;90.70
10441;DHT22;5268;49.346;9.522;2023-07-08T06:14:24;20.60;93.40
10441;DHT22;5268;49.346;9.522;2023-07-08T06:19:26;20.90;89.30
10441;DHT22;5268;49.346;9.522;2023-07-08T06:24:28;21.30;88.00
10441;DHT22;5268;49.346;9.522;2023-07-08T06:29:33;21.70;88.10
10441;DHT22;5268;49.346;9.522;2023-07-08T06:34:35;22.10;88.60
10441;DHT22;5268;49.346;9.522;2023-07-08T06:39:37;22.50;88.40
10441;DHT22;5268;49.346;9.522;2023-07-08T06:44:41;22.90;87.90
10441;DHT22;5268;49.346;9.522;2023-07-08T06:49:50;23.30;90.30
10441;DHT22;5268;49.346;9.522;2023-07-08T06:54:52;23.70;87.10
10441;DHT22;5268;49.346;9.522;2023-07-08T06:59:55;24.00;86.40
10441;DHT22;5268;49.346;9.522;2023-07-08T07:04:58;24.10;86.00
10441;DHT22;5268;49.346;9.522;2023-07-08T07:10:00;24.10;85.20
10441;DHT22;5268;49.346;9.522;2023-07-08T07:15:06;24.10;85.70
10441;DHT22;5268;49.346;9.522;2023-07-08T07:20:08;24.40;86.20
10441;DHT22;5268;49.346;9.522;2023-07-08T07:25:10;25.00;85.90
10441;DHT22;5268;49.346;9.522;2023-07-08T07:30:14;25.60;85.40
10441;DHT22;5268;49.346;9.522;2023-07-08T07:35:16;26.20;84.70
10441;DHT22;5268;49.346;9.522;2023-07-08T07:40:18;26.50;84.10
10441;DHT22;5268;49.346;9.522;2023-07-08T07:45:22;26.70;81.90
10441;DHT22;5268;49.346;9.522;2023-07-08T07:50:24;26.80;80.80
10441;DHT22;5268;49.346;9.522;2023-07-08T07:55:26;27.10;80.70
10441;DHT22;5268;49.346;9.522;2023-07-08T08:00:29;27.40;79.40
10441;DHT22;5268;49.346;9.522;2023-07-08T08:05:31;27.60;76.20
10441;DHT22;5268;49.346;9.522;2023-07-08T08:10:34;27.90;76.90
10441;DHT22;5268;49.346;9.522;2023-07-08T08:15:38;28.20;80.00
10441;DHT22;5268;49.346;9.522;2023-07-08T08:20:40;28.60;77.70
10441;DHT22;5268;49.346;9.522;2023-07-08T08:25:42;29.00;78.40
10441;DHT22;5268;49.346;9.522;2023-07-08T08:30:48;29.30;75.40
10441;DHT22;5268;49.346;9.522;2023-07-08T08:35:51;29.60;78.20
10441;DHT22;5268;49.346;9.522;2023-07-08T08:40:53;29.90;78.30
10441;DHT22;5268;49.346;9.522;2023-07-08T08:46:02;30.20;78.60
10441;DHT22;5268;49.346;9.522;2023-07-08T08:51:09;30.60;77.70
10441;DHT22;5268;49.346;9.522;2023-07-08T08:56:20;30.90;76.00
10441;DHT22;5268;49.346;9.522;2023-07-08T09:01:23;30.60;73.30
10441;DHT22;5268;49.346;9.522;2023-07-08T09:06:27;30.90;76.00
10441;DHT22;5268;49.346;9.522;2023-07-08T09:11:42;31.20;77.30
10441;DHT22;5268;49.346;9.522;2023-07-08T09:16:53;31.50;77.60
10441;DHT22;5268;49.346;9.522;2023-07-08T09:22:01;31.90;76.80
10441;DHT22;5268;49.346;9.522;2023-07-08T09:27:05;32.20;73.10
10441;DHT22;5268;49.346;9.522;2023-07-08T09:32:19;32.20;76.20
10441;DHT22;5268;49.346;9.522;2023-07-08T09:37:24;32.10;75.10
10441;DHT22;5268;49.346;9.522;2023-07-08T09:42:30;32.30;75.20
10441;DHT22;5268;49.346;9.522;2023-07-08T09:47:36;32.40;74.20
10441;DHT22;5268;49.346;9.522;2023-07-08T09:52:41;32.50;74.50
10441;DHT22;5268;49.346;9.522;2023-07-08T09:57:44;32.60;73.50
10441;DHT22;5268;49.346;9.522;2023-07-08T10:02:51;32.80;73.80
10441;DHT22;5268;49.346;9.522;2023-07-08T10:07:55;32.60;69.10
10441;DHT22;5268;49.346;9.522;2023-07-08T10:13:00;32.60;74.00
10441;DHT22;5268;49.346;9.522;2023-07-08T10:18:11;32.70;73.20
10441;DHT22;5268;49.346;9.522;2023-07-08T10:23:26;32.90;73.90
10441;DHT22;5268;49.346;9.522;2023-07-08T10:28:41;33.00;73.20
10441;DHT22;5268;49.346;9.522;2023-07-08T10:33:58;33.20;71.50
10441;DHT22;5268;49.346;9.522;2023-07-08T10:39:28;32.90;67.30
10441;DHT22;5268;49.346;9.522;2023-07-08T10:44:42;33.10;73.20
10441;DHT22;5268;49.346;9.522;2023-07-08T10:49:59;33.40;72.90
10441;DHT22;5268;49.346;9.522;2023-07-08T10:55:17;33.60;69.50
10441;DHT22;5268;49.346;9.522;2023-07-08T11:00:27;33.70;70.10
10441;DHT22;5268;49.346;9.522;2023-07-08T11:05:38;33.90;72.10
10441;DHT22;5268;49.346;9.522;2023-07-08T11:10:49;34.10;70.30
10441;DHT22;5268;49.346;9.522;2023-07-08T11:15:57;34.30;71.00
10441;DHT22;5268;49.346;9.522;2023-07-08T11:21:06;34.40;68.00
10441;DHT22;5268;49.346;9.522;2023-07-08T11:26:17;34.40;67.30
10441;DHT22;5268;49.346;9.522;2023-07-08T11:31:22;33.90;59.50
10441;DHT22;5268;49.346;9.522;2023-07-08T11:36:27;33.80;61.40
10441;DHT22;5268;49.346;9.522;2023-07-08T11:41:31;33.50;65.30
10441;DHT22;5268;49.346;9.522;2023-07-08T11:46:34;33.80;66.80
10441;DHT22;5268;49.346;9.522;2023-07-08T11:51:44;34.10;67.70
10441;DHT22;5268;49.346;9.522;2023-07-08T11:56:49;34.40;68.20
10441;DHT22;5268;49.346;9.522;2023-07-08T12:01:53;34.70;68.30
10441;DHT22;5268;49.346;9.522;2023-07-08T12:07:19;34.90;68.10
10441;DHT22;5268;49.346;9.522;2023-07-08T12:12:25;34.60;64.40
10441;DHT22;5268;49.346;9.522;2023-07-08T12:17:30;34.00;60.90
10441;DHT22;5268;49.346;9.522;2023-07-08T12:22:34;33.30;60.30
10441;DHT22;5268;49.346;9.522;2023-07-08T12:27:36;33.30;59.40
10441;DHT22;5268;49.346;9.522;2023-07-08T12:32:38;33.30;60.60
10441;DHT22;5268;49.346;9.522;2023-07-08T12:37:42;33.80;66.00
10441;DHT22;5268;49.346;9.522;2023-07-08T12:42:46;34.10;62.70
10441;DHT22;5268;49.346;9.522;2023-07-08T12:47:49;34.20;61.30
10441;DHT22;5268;49.346;9.522;2023-07-08T12:52:53;34.30;65.30
10441;DHT22;5268;49.346;9.522;2023-07-08T12:57:55;34.50;59.10
10441;DHT22;5268;49.346;9.522;2023-07-08T13:03:01;34.60;62.70
10441;DHT22;5268;49.346;9.522;2023-07-08T13:08:08;34.90;65.10
10441;DHT22;5268;49.346;9.522;2023-07-08T13:13:15;35.10;66.00
10441;DHT22;5268;49.346;9.522;2023-07-08T13:18:20;35.20;65.30
10441;DHT22;5268;49.346;9.522;2023-07-08T13:23:26;35.40;64.10
10441;DHT22;5268;49.346;9.522;2023-07-08T13:28:30;35.50;65.30
10441;DHT22;5268;49.346;9.522;2023-07-08T13:33:37;35.50;65.10
10441;DHT22;5268;49.346;9.522;2023-07-08T13:38:40;35.50;60.30
10441;DHT22;5268;49.346;9.522;2023-07-08T13:43:43;34.90;58.10
10441;DHT22;5268;49.346;9.522;2023-07-08T13:48:45;34.60;59.40
10441;DHT22;5268;49.346;9.522;2023-07-08T13:53:52;34.70;63.30
10441;DHT22;5268;49.346;9.522;2023-07-08T13:59:03;34.90;63.60
10441;DHT22;5268;49.346;9.522;2023-07-08T14:04:06;35.00;62.50
10441;DHT22;5268;49.346;9.522;2023-07-08T14:09:13;35.10;64.00
10441;DHT22;5268;49.346;9.522;2023-07-08T14:14:16;35.20;63.10
10441;DHT22;5268;49.346;9.522;2023-07-08T14:19:22;35.20;61.90
10441;DHT22;5268;49.346;9.522;2023-07-08T14:24:26;35.00;62.00
10441;DHT22;5268;49.346;9.522;2023-07-08T14:29:28;34.70;54.10
10441;DHT22;5268;49.346;9.522;2023-07-08T14:34:33;34.70;62.30
10441;DHT22;5268;49.346;9.522;2023-07-08T14:39:37;34.90;62.90
10441;DHT22;5268;49.346;9.522;2023-07-08T14:44:41;34.90;59.60
10441;DHT22;5268;49.346;9.522;2023-07-08T14:49:44;34.50;56.60
10441;DHT22;5268;49.346;9.522;2023-07-08T14:54:47;34.10;59.20
10441;DHT22;5268;49.346;9.522;2023-07-08T14:59:49;34.20;62.20
10441;DHT22;5268;49.346;9.522;2023-07-08T15:04:51;34.40;57.70
10441;DHT22;5268;49.346;9.522;2023-07-08T15:09:56;33.80;55.00
10441;DHT22;5268;49.346;9.522;2023-07-08T15:14:58;33.50;56.10
10441;DHT22;5268;49.346;9.522;2023-07-08T15:20:00;33.60;56.90
10441;DHT22;5268;49.346;9.522;2023-07-08T15:25:09;33.20;56.70
10441;DHT22;5268;49.346;9.522;2023-07-08T15:30:16;33.20;57.60
10441;DHT22;5268;49.346;9.522;2023-07-08T15:35:20;33.30;56.00
10441;DHT22;5268;49.346;9.522;2023-07-08T15:40:27;33.50;60.40
10441;DHT22;5268;49.346;9.522;2023-07-08T15:45:32;33.50;58.00
10441;DHT22;5268;49.346;9.522;2023-07-08T15:50:35;33.60;60.70
10441;DHT22;5268;49.346;9.522;2023-07-08T15:55:40;33.70;58.70
10441;DHT22;5268;49.346;9.522;2023-07-08T16:00:43;33.70;61.20
10441;DHT22;5268;49.346;9.522;2023-07-08T16:05:45;33.60;58.50
10441;DHT22;5268;49.346;9.522;2023-07-08T16:10:51;33.20;58.20
10441;DHT22;5268;49.346;9.522;2023-07-08T16:15:54;33.20;57.20
10441;DHT22;5268;49.346;9.522;2023-07-08T16:20:57;33.00;54.90
10441;DHT22;5268;49.346;9.522;2023-07-08T16:26:01;33.00;59.20
10441;DHT22;5268;49.346;9.522;2023-07-08T16:31:04;33.00;58.00
10441;DHT22;5268;49.346;9.522;2023-07-08T16:36:12;33.10;60.70
10441;DHT22;5268;49.346;9.522;2023-07-08T16:41:18;33.30;60.90
10441;DHT22;5268;49.346;9.522;2023-07-08T16:46:20;33.40;61.10
10441;DHT22;5268;49.346;9.522;2023-07-08T16:51:25;33.40;61.50
10441;DHT22;5268;49.346;9.522;2023-07-08T16:56:29;33.50;62.10
10441;DHT22;5268;49.346;9.522;2023-07-08T17:01:31;33.60;62.10
10441;DHT22;5268;49.346;9.522;2023-07-08T17:06:33;33.60;62.50
10441;DHT22;5268;49.346;9.522;2023-07-08T17:11:37;33.60;63.10
10441;DHT22;5268;49.346;9.522;2023-07-08T17:16:39;33.70;62.00
10441;DHT22;5268;49.346;9.522;2023-07-08T17:21:41;33.60;62.70
10441;DHT22;5268;49.346;9.522;2023-07-08T17:26:44;33.60;62.30
10441;DHT22;5268;49.346;9.522;2023-07-08T17:31:46;33.50;62.50
10441;DHT22;5268;49.346;9.522;2023-07-08T17:36:49;33.50;62.80
10441;DHT22;5268;49.346;9.522;2023-07-08T17:41:53;33.50;62.60
10441;DHT22;5268;49.346;9.522;2023-07-08T17:46:56;33.40;63.40
10441;DHT22;5268;49.346;9.522;2023-07-08T17:51:59;33.30;63.90
10441;DHT22;5268;49.346;9.522;2023-07-08T17:57:03;33.30;63.80
10441;DHT22;5268;49.346;9.522;2023-07-08T18:02:13;33.20;63.70
10441;DHT22;5268;49.346;9.522;2023-07-08T18:07:16;33.00;64.00
10441;DHT22;5268;49.346;9.522;2023-07-08T18:12:19;32.80;65.10
10441;DHT22;5268;49.346;9.522;2023-07-08T18:17:21;32.50;64.30
10441;DHT22;5268;49.346;9.522;2023-07-08T18:22:24;32.20;64.20
10441;DHT22;5268;49.346;9.522;2023-07-08T18:27:27;32.00;64.80
10441;DHT22;5268;49.346;9.522;2023-07-08T18:32:29;31.70;65.50
10441;DHT22;5268;49.346;9.522;2023-07-08T18:37:31;31.50;65.20
10441;DHT22;5268;49.346;9.522;2023-07-08T18:42:34;31.30;65.40
10441;DHT22;5268;49.346;9.522;2023-07-08T18:47:36;31.00;65.90
10441;DHT22;5268;49.346;9.522;2023-07-08T18:52:38;30.80;66.30
10441;DHT22;5268;49.346;9.522;2023-07-08T18:57:42;30.60;67.10
10441;DHT22;5268;49.346;9.522;2023-07-08T19:02:50;30.40;67.20
10441;DHT22;5268;49.346;9.522;2023-07-08T19:07:53;30.20;67.80
10441;DHT22;5268;49.346;9.522;2023-07-08T19:12:57;30.00;68.40
10441;DHT22;5268;49.346;9.522;2023-07-08T19:17:59;29.80;68.40
10441;DHT22;5268;49.346;9.522;2023-07-08T19:23:01;29.70;68.70
10441;DHT22;5268;49.346;9.522;2023-07-08T19:28:06;29.50;68.60
10441;DHT22;5268;49.346;9.522;2023-07-08T19:33:12;29.40;69.00
10441;DHT22;5268;49.346;9.522;2023-07-08T19:38:15;29.30;69.50
10441;DHT22;5268;49.346;9.522;2023-07-08T19:43:20;29.10;69.50
10441;DHT22;5268;49.346;9.522;2023-07-08T19:48:23;28.90;69.70
10441;DHT22;5268;49.346;9.522;2023-07-08T19:53:25;28.70;69.70
10441;DHT22;5268;49.346;9.522;2023-07-08T19:58:29;28.50;69.30
10441;DHT22;5268;49.346;9.522;2023-07-08T20:03:31;28.30;70.40
10441;DHT22;5268;49.346;9.522;2023-07-08T20:08:33;28.10;70.40
10441;DHT22;5268;49.346;9.522;2023-07-08T20:13:37;28.00;70.80
10441;DHT22;5268;49.346;9.522;2023-07-08T20:18:39;27.90;72.00
10441;DHT22;5268;49.346;9.522;2023-07-08T20:23:41;27.70;71.80
10441;DHT22;5268;49.346;9.522;2023-07-08T20:28:45;27.50;71.90
10441;DHT22;5268;49.346;9.522;2023-07-08T20:33:48;27.40;72.50
10441;DHT22;5268;49.346;9.522;2023-07-08T20:38:50;27.20;71.90
10441;DHT22;5268;49.346;9.522;2023-07-08T20:43:53;27.10;71.90
10441;DHT22;5268;49.346;9.522;2023-07-08T20:48:58;27.00;71.50
10441;DHT22;5268;49.346;9.522;2023-07-08T20:54:01;26.80;73.70
10441;DHT22;5268;49.346;9.522;2023-07-08T20:59:04;26.70;74.00
10441;DHT22;5268;49.346;9.522;2023-07-08T21:04:10;26.50;74.20
10441;DHT22;5268;49.346;9.522;2023-07-08T21:09:12;26.40;74.40
10441;DHT22;5268;49.346;9.522;2023-07-08T21:14:16;26.20;73.60
10441;DHT22;5268;49.346;9.522;2023-07-08T21:19:18;26.10;75.50
10441;DHT22;5268;49.346;9.522;2023-07-08T21:24:20;25.90;74.00
10441;DHT22;5268;49.346;9.522;2023-07-08T21:29:24;25.80;74.50
10441;DHT22;5268;49.346;9.522;2023-07-08T21:34:26;25.60;76.60
10441;DHT22;5268;49.346;9.522;2023-07-08T21:39:31;25.50;75.50
10441;DHT22;5268;49.346;9.522;2023-07-08T21:44:35;25.30;80.70
10441;DHT22;5268;49.346;9.522;2023-07-08T21:49:37;25.20;77.00
10441;DHT22;5268;49.346;9.522;2023-07-08T21:54:39;25.10;77.30
